sensor_id;sensor_type;location;lat;lon;timestamp;temperature;humidity
43862;DHT22;29510;52.140;5.034;2022-09-21T00:04:10;10.70;99.90
43862;DHT22;29510;52.140;5.034;2022-09-21T00:14:12;10.60;99.90
43862;DHT22;29510;52.140;5.034;2022-09-21T00:24:14;10.60;99.90
43862;DHT22;29510;52.140;5.034;2022-09-21T00:34:15;10.60;99.90
43862;DHT22;29510;52.140;5.034;2022-09-21T00:44:23;10.70;99.90
43862;DHT22;29510;52.140;5.034;2022-09-21T00:54:29;10.80;99.90
43862;DHT22;29510;52.140;5.034;2022-09-21T01:04:33;10.70;99.90
43862;DHT22;29510;52.140;5.034;2022-09-21T01:35:22;10.40;99.90
43862;DHT22;29510;52.140;5.034;2022-09-21T01:45:36;10.30;99.90
43862;DHT22;29510;52.140;5.034;2022-09-21T01:55:47;10.20;99.90
43862;DHT22;29510;52.140;5.034;2022-09-21T02:05:50;10.10;99.90
43862;DHT22;29510;52.140;5.034;2022-09-21T02:16:00;9.90;99.90
43862;DHT22;29510;52.140;5.034;2022-09-21T02:26:08;9.90;99.90
43862;DHT22;29510;52.140;5.034;2022-09-21T02:36:32;9.70;99.90
43862;DHT22;29510;52.140;5.034;2022-09-21T02:46:40;9.70;99.90
43862;DHT22;29510;52.140;5.034;2022-09-21T02:56:45;9.70;99.90
43862;DHT22;29510;52.140;5.034;2022-09-21T03:06:47;9.70;99.90
43862;DHT22;29510;52.140;5.034;2022-09-21T03:16:48;9.60;99.90
43862;DHT22;29510;52.140;5.034;2022-09-21T03:26:49;9.60;99.90
43862;DHT22;29510;52.140;5.034;2022-09-21T03:36:50;9.50;99.90
43862;DHT22;29510;52.140;5.034;2022-09-21T03:46:52;9.40;99.90
43862;DHT22;29510;52.140;5.034;2022-09-21T03:56:53;9.40;99.90
43862;DHT22;29510;52.140;5.034;2022-09-21T04:06:54;9.30;99.90
43862;DHT22;29510;52.140;5.034;2022-09-21T04:16:55;9.20;99.90
43862;DHT22;29510;52.140;5.034;2022-09-21T04:26:57;9.10;99.90
43862;DHT22;29510;52.140;5.034;2022-09-21T04:36:58;9.00;99.90
43862;DHT22;29510;52.140;5.034;2022-09-21T04:46:59;9.00;99.90
43862;DHT22;29510;52.140;5.034;2022-09-21T04:57:00;9.60;99.90
43862;DHT22;29510;52.140;5.034;2022-09-21T05:07:03;9.60;99.90
43862;DHT22;29510;52.140;5.034;2022-09-21T05:17:04;9.30;99.90
43862;DHT22;29510;52.140;5.034;2022-09-21T05:27:05;9.20;99.90
43862;DHT22;29510;52.140;5.034;2022-09-21T05:37:19;9.10;99.90
43862;DHT22;29510;52.140;5.034;2022-09-21T06:08:26;8.80;99.90
43862;DHT22;29510;52.140;5.034;2022-09-21T06:18:27;8.90;99.90
43862;DHT22;29510;52.140;5.034;2022-09-21T06:28:28;9.10;99.90
43862;DHT22;29510;52.140;5.034;2022-09-21T06:38:29;9.40;99.90
43862;DHT22;29510;52.140;5.034;2022-09-21T06:48:32;9.90;99.90
43862;DHT22;29510;52.140;5.034;2022-09-21T06:58:34;10.30;99.90
43862;DHT22;29510;52.140;5.034;2022-09-21T07:08:35;10.60;99.90
43862;DHT22;29510;52.140;5.034;2022-09-21T07:18:37;10.80;99.90
43862;DHT22;29510;52.140;5.034;2022-09-21T07:28:39;11.10;99.90
43862;DHT22;29510;52.140;5.034;2022-09-21T07:38:42;11.40;99.90
43862;DHT22;29510;52.140;5.034;2022-09-21T07:48:43;11.80;99.90
43862;DHT22;29510;52.140;5.034;2022-09-21T07:58:46;12.10;99.90
43862;DHT22;29510;52.140;5.034;2022-09-21T08:09:06;12.60;99.90
43862;DHT22;29510;52.140;5.034;2022-09-21T08:19:08;12.90;99.90
43862;DHT22;29510;52.140;5.034;2022-09-21T08:29:09;13.30;99.90
43862;DHT22;29510;52.140;5.034;2022-09-21T08:39:10;13.70;99.90
43862;DHT22;29510;52.140;5.034;2022-09-21T08:49:17;14.00;99.90
43862;DHT22;29510;52.140;5.034;2022-09-21T08:59:19;14.40;99.90
43862;DHT22;29510;52.140;5.034;2022-09-21T09:09:54;14.70;99.90
43862;DHT22;29510;52.140;5.034;2022-09-21T09:20:06;15.00;99.90
43862;DHT22;29510;52.140;5.034;2022-09-21T09:30:24;15.00;99.90
43862;DHT22;29510;52.140;5.034;2022-09-21T09:40:45;15.00;99.90
43862;DHT22;29510;52.140;5.034;2022-09-21T09:50:48;15.20;99.90
43862;DHT22;29510;52.140;5.034;2022-09-21T10:00:54;15.40;99.90
43862;DHT22;29510;52.140;5.034;2022-09-21T10:10:56;15.40;99.90
43862;DHT22;29510;52.140;5.034;2022-09-21T10:21:02;15.20;99.90
43862;DHT22;29510;52.140;5.034;2022-09-21T10:41:10;15.60;99.90
43862;DHT22;29510;52.140;5.034;2022-09-21T10:51:28;16.00;99.90
43862;DHT22;29510;52.140;5.034;2022-09-21T11:01:30;16.00;99.90
43862;DHT22;29510;52.140;5.034;2022-09-21T11:11:45;15.80;99.90
43862;DHT22;29510;52.140;5.034;2022-09-21T11:21:56;16.30;99.90
43862;DHT22;29510;52.140;5.034;2022-09-21T11:32:17;16.50;99.90
43862;DHT22;29510;52.140;5.034;2022-09-21T11:53:10;17.20;99.90
43862;DHT22;29510;52.140;5.034;2022-09-21T12:13:59;19.20;99.50
43862;DHT22;29510;52.140;5.034;2022-09-21T12:24:07;18.70;99.80
43862;DHT22;29510;52.140;5.034;2022-09-21T12:34:16;17.50;99.90
43862;DHT22;29510;52.140;5.034;2022-09-21T12:44:41;16.90;99.90
43862;DHT22;29510;52.140;5.034;2022-09-21T13:05:30;16.90;99.90
43862;DHT22;29510;52.140;5.034;2022-09-21T13:15:46;17.90;99.90
43862;DHT22;29510;52.140;5.034;2022-09-21T13:25:58;18.30;99.90
43862;DHT22;29510;52.140;5.034;2022-09-21T13:36:02;19.80;99.90
43862;DHT22;29510;52.140;5.034;2022-09-21T13:46:04;21.60;99.30
43862;DHT22;29510;52.140;5.034;2022-09-21T13:56:16;22.20;96.30
43862;DHT22;29510;52.140;5.034;2022-09-21T14:06:24;22.50;97.70
43862;DHT22;29510;52.140;5.034;2022-09-21T14:36:46;19.10;99.50
43862;DHT22;29510;52.140;5.034;2022-09-21T15:17:53;16.70;99.90
43862;DHT22;29510;52.140;5.034;2022-09-21T15:27:54;17.30;99.90
43862;DHT22;29510;52.140;5.034;2022-09-21T15:37:57;17.70;99.90
43862;DHT22;29510;52.140;5.034;2022-09-21T15:48:01;17.80;99.90
43862;DHT22;29510;52.140;5.034;2022-09-21T15:58:15;17.60;99.90
43862;DHT22;29510;52.140;5.034;2022-09-21T16:08:32;17.20;99.90
43862;DHT22;29510;52.140;5.034;2022-09-21T16:18:45;17.10;99.90
43862;DHT22;29510;52.140;5.034;2022-09-21T16:28:47;16.70;99.90
43862;DHT22;29510;52.140;5.034;2022-09-21T16:38:48;16.60;99.90
43862;DHT22;29510;52.140;5.034;2022-09-21T16:48:50;16.40;99.90
43862;DHT22;29510;52.140;5.034;2022-09-21T16:58:51;16.20;99.90
43862;DHT22;29510;52.140;5.034;2022-09-21T17:08:52;15.90;99.90
43862;DHT22;29510;52.140;5.034;2022-09-21T17:18:54;15.50;99.90
43862;DHT22;29510;52.140;5.034;2022-09-21T17:28:55;15.20;99.90
43862;DHT22;29510;52.140;5.034;2022-09-21T17:38:57;14.80;99.90
43862;DHT22;29510;52.140;5.034;2022-09-21T17:48:58;14.40;99.90
43862;DHT22;29510;52.140;5.034;2022-09-21T17:59:01;14.00;99.90
43862;DHT22;29510;52.140;5.034;2022-09-21T18:09:03;13.70;99.90
43862;DHT22;29510;52.140;5.034;2022-09-21T18:19:27;13.40;99.90
43862;DHT22;29510;52.140;5.034;2022-09-21T18:29:32;13.10;99.90
43862;DHT22;29510;52.140;5.034;2022-09-21T18:50:06;12.60;99.90
43862;DHT22;29510;52.140;5.034;2022-09-21T19:00:16;12.60;99.90
43862;DHT22;29510;52.140;5.034;2022-09-21T19:10:49;12.40;99.90
43862;DHT22;29510;52.140;5.034;2022-09-21T19:21:09;12.30;99.90
43862;DHT22;29510;52.140;5.034;2022-09-21T19:31:14;12.10;99.90
43862;DHT22;29510;52.140;5.034;2022-09-21T19:41:40;11.90;99.90
43862;DHT22;29510;52.140;5.034;2022-09-21T19:51:49;11.70;99.90
43862;DHT22;29510;52.140;5.034;2022-09-21T20:01:54;11.60;99.90
43862;DHT22;29510;52.140;5.034;2022-09-21T20:12:48;11.40;99.90
43862;DHT22;29510;52.140;5.034;2022-09-21T20:32:36;11.20;99.90
43862;DHT22;29510;52.140;5.034;2022-09-21T20:42:39;11.10;99.90
43862;DHT22;29510;52.140;5.034;2022-09-21T20:52:41;11.10;99.90
43862;DHT22;29510;52.140;5.034;2022-09-21T21:02:42;11.00;99.90
43862;DHT22;29510;52.140;5.034;2022-09-21T21:12:43;10.80;99.90
43862;DHT22;29510;52.140;5.034;2022-09-21T21:22:48;10.70;99.90
43862;DHT22;29510;52.140;5.034;2022-09-21T21:32:49;10.60;99.90
43862;DHT22;29510;52.140;5.034;2022-09-21T21:42:54;10.60;99.90
43862;DHT22;29510;52.140;5.034;2022-09-21T21:52:59;10.50;99.90
43862;DHT22;29510;52.140;5.034;2022-09-21T22:03:00;10.40;99.90
43862;DHT22;29510;52.140;5.034;2022-09-21T22:13:02;10.30;99.90
43862;DHT22;29510;52.140;5.034;2022-09-21T22:23:06;10.20;99.90
43862;DHT22;29510;52.140;5.034;2022-09-21T22:33:08;10.10;99.90
43862;DHT22;29510;52.140;5.034;2022-09-21T22:43:12;10.00;99.90
43862;DHT22;29510;52.140;5.034;2022-09-21T22:53:13;10.00;99.90
43862;DHT22;29510;52.140;5.034;2022-09-21T23:03:14;9.90;99.90
43862;DHT22;29510;52.140;5.034;2022-09-21T23:13:17;9.80;99.90
43862;DHT22;29510;52.140;5.034;2022-09-21T23:23:18;9.70;99.90
43862;DHT22;29510;52.140;5.034;2022-09-21T23:33:19;9.70;99.90
43862;DHT22;29510;52.140;5.034;2022-09-21T23:43:20;9.60;99.90
43862;DHT22;29510;52.140;5.034;2022-09-21T23:53:22;9.50;99.90
